Time;durP1;ratioP1;P1;durP2;ratioP2;P2;SDS_P1;SDS_P2;PMS_P1;PMS_P2;Temp;Humidity;BMP_temperature;BMP_pressure;BME280_temperature;BME280_humidity;BME280_pressure;Samples;Min_cycle;Max_cycle;Signal;HPM_P1;HPM_P2
2023/05/26 00:01:36;;;;;;;1.83;1.73;;;;;12.80;96655.00;;;;5016244;28;20212;-55
2023/05/26 00:04:04;;;;;;;1.07;1.07;;;;;12.80;96658.00;;;;5015906;28;20193;-56
2023/05/26 00:06:31;;;;;;;2.50;1.67;;;;;12.80;96652.00;;;;5016122;28;20186;-55
2023/05/26 00:08:58;;;;;;;1.60;1.27;;;;;12.80;96660.00;;;;5016223;28;20216;-56
2023/05/26 00:11:28;;;;;;;1.33;1.27;;;;;12.60;96667.00;;;;5015772;28;20197;-57
2023/05/26 00:13:56;;;;;;;1.20;1.20;;;;;12.60;96670.00;;;;5015778;28;20228;-55
2023/05/26 00:16:23;;;;;;;1.27;1.20;;;;;12.60;96682.00;;;;5015682;28;20194;-57
2023/05/26 00:18:52;;;;;;;0.83;0.83;;;;;12.50;96679.00;;;;5015614;28;20271;-55
2023/05/26 00:21:20;;;;;;;1.23;1.23;;;;;12.40;96675.00;;;;5015697;28;20240;-56
2023/05/26 00:23:47;;;;;;;0.97;0.97;;;;;12.40;96668.00;;;;5015512;28;20216;-55
2023/05/26 00:26:14;;;;;;;1.73;1.60;;;;;12.40;96671.00;;;;5015535;28;20193;-56
2023/05/26 00:28:42;;;;;;;1.33;1.30;;;;;12.50;96674.00;;;;5015503;28;20194;-56
2023/05/26 00:31:09;;;;;;;1.00;1.00;;;;;12.50;96671.00;;;;5015409;28;20196;-56
2023/05/26 00:33:37;;;;;;;1.23;1.13;;;;;12.50;96671.00;;;;5014760;28;20198;-55
2023/05/26 00:36:09;;;;;;;2.83;1.40;;;;;12.40;96673.00;;;;5015448;28;20742;-56
2023/05/26 00:38:36;;;;;;;1.17;1.17;;;;;12.40;96673.00;;;;5015223;28;20210;-56
2023/05/26 00:41:04;;;;;;;1.27;1.27;;;;;12.10;96674.00;;;;5015313;28;20672;-56
2023/05/26 00:43:32;;;;;;;1.20;1.20;;;;;12.00;96674.00;;;;5015218;28;20197;-55
2023/05/26 00:45:59;;;;;;;1.30;1.20;;;;;11.90;96676.00;;;;5015329;28;20221;-55
2023/05/26 00:48:26;;;;;;;2.03;1.77;;;;;11.90;96674.00;;;;5015062;28;20189;-55
2023/05/26 00:50:54;;;;;;;1.90;1.73;;;;;11.80;96669.00;;;;5014988;28;20193;-56
2023/05/26 00:53:23;;;;;;;1.47;1.37;;;;;11.90;96662.00;;;;5015042;28;20194;-56
2023/05/26 00:55:54;;;;;;;3.53;1.33;;;;;12.00;96673.00;;;;5015748;28;20221;-56
2023/05/26 00:58:22;;;;;;;0.70;0.70;;;;;12.00;96669.00;;;;5015490;28;20197;-56
2023/05/26 01:00:50;;;;;;;1.93;1.83;;;;;12.10;96666.00;;;;5014880;28;20198;-55
2023/05/26 01:03:18;;;;;;;1.07;1.03;;;;;12.00;96667.00;;;;5015093;28;20564;-56
2023/05/26 01:05:45;;;;;;;1.20;1.20;;;;;12.10;96666.00;;;;5014839;28;20275;-56
2023/05/26 01:08:13;;;;;;;3.37;2.10;;;;;12.10;96665.00;;;;5014929;28;20205;-56
2023/05/26 01:10:41;;;;;;;1.27;1.23;;;12.90;62.20;12.20;96663.00;;;;5015305;28;20251;-55
2023/05/26 01:13:16;;;;;;;1.90;1.33;;;12.90;62.40;12.30;96663.00;;;;5014888;28;20196;-56
2023/05/26 01:15:52;;;;;;;2.10;1.47;;;12.90;62.00;12.30;96662.00;;;;5014581;28;20706;-56
2023/05/26 01:18:30;;;;;;;0.90;0.90;;;12.90;62.20;12.20;96665.00;;;;5014933;28;20213;-56
2023/05/26 01:21:05;;;;;;;0.70;0.70;;;12.90;62.60;12.10;96663.00;;;;5014857;28;20181;-56
2023/05/26 01:24:00;;;;;;;1.10;1.03;;;12.80;62.20;12.10;96662.00;;;;5014677;28;20182;-56
2023/05/26 01:26:50;;;;;;;0.80;0.80;;;12.80;63.00;12.10;96662.00;;;;5014995;28;20266;-56
2023/05/26 01:29:23;;;;;;;1.87;1.77;;;12.80;63.10;12.10;96656.00;;;;5014703;28;20189;-55
2023/05/26 01:31:50;;;;;;;0.80;0.80;;;12.80;63.10;12.00;96659.00;;;;5014631;28;20534;-56
2023/05/26 01:34:17;;;;;;;1.40;1.30;;;12.80;63.00;12.10;96661.00;;;;5014252;28;20217;-55
2023/05/26 01:36:44;;;;;;;1.43;1.30;;;12.80;62.80;12.10;96658.00;;;;5014223;28;20198;-56
2023/05/26 01:39:11;;;;;;;1.50;1.40;;;12.80;62.80;12.10;96656.00;;;;5012872;28;20217;-56
2023/05/26 01:41:47;;;;;;;0.80;0.80;;;12.80;62.90;12.00;96653.00;;;;5014381;28;20186;-56
2023/05/26 01:44:25;;;;;;;1.10;1.10;;;12.80;63.10;12.10;96655.00;;;;5014265;28;20216;-56
2023/05/26 01:46:53;;;;;;;1.17;1.17;;;12.70;62.90;12.10;96642.00;;;;5014070;28;20181;-56
2023/05/26 01:49:23;;;;;;;1.30;1.00;;;12.70;63.20;11.90;96634.00;;;;5014065;28;20557;-56
2023/05/26 01:51:56;;;;;;;2.20;1.37;;;12.70;63.30;12.00;96650.00;;;;5014557;28;20174;-55
2023/05/26 01:54:27;;;;;;;1.10;1.10;;;12.70;63.80;12.00;96659.00;;;;5014213;28;20209;-54
2023/05/26 01:56:56;;;;;;;1.13;1.13;;;12.70;63.70;12.10;96653.00;;;;5013873;28;20190;-54
2023/05/26 01:59:26;;;;;;;1.33;1.33;;;12.80;63.40;12.20;96649.00;;;;5013714;28;20225;-59
2023/05/26 02:01:53;;;;;;;1.17;1.17;;;12.90;63.30;12.20;96652.00;;;;5013730;28;20197;-55
2023/05/26 02:04:20;;;;;;;1.33;1.23;;;12.90;62.80;12.30;96664.00;;;;5013644;28;20217;-56
2023/05/26 02:06:47;;;;;;;1.17;1.17;;;12.90;62.90;12.30;96659.00;;;;5013841;28;20200;-57
2023/05/26 02:09:14;;;;;;;1.33;1.33;;;13.00;62.40;12.30;96653.00;;;;5012437;28;20271;-56
2023/05/26 02:11:41;;;;;;;1.23;1.23;;;13.00;62.30;12.30;96654.00;;;;5013731;28;20189;-56
2023/05/26 02:14:08;;;;;;;1.20;1.10;;;13.00;62.20;12.30;96661.00;;;;5012366;28;20194;-55
2023/05/26 02:16:37;;;;;;;1.13;1.13;;;13.00;62.20;12.30;96646.00;;;;5013859;28;20554;-55
2023/05/26 02:19:04;;;;;;;0.83;0.83;;;13.00;62.30;12.30;96647.00;;;;5013512;28;20217;-56
2023/05/26 02:21:32;;;;;;;1.13;1.13;;;13.00;62.10;12.30;96653.00;;;;5013555;28;20676;-55
2023/05/26 02:23:59;;;;;;;1.70;1.60;;;12.90;61.80;12.30;96649.00;;;;5013455;28;20196;-55
2023/05/26 02:26:26;;;;;;;2.33;2.20;;;13.00;61.80;12.30;96650.00;;;;5013482;28;20668;-55
2023/05/26 02:28:55;;;;;;;5.50;1.23;;;12.90;62.40;12.20;96647.00;;;;5013510;28;20216;-55
2023/05/26 02:31:22;;;;;;;1.47;1.37;;;13.00;61.60;12.20;96647.00;;;;5013748;28;20321;-55
2023/05/26 02:33:51;;;;;;;0.67;0.67;;;13.00;61.50;12.10;96649.00;;;;5013399;28;20243;-55
2023/05/26 02:36:18;;;;;;;0.80;0.80;;;12.90;61.60;12.10;96642.00;;;;5012182;28;20641;-55
2023/05/26 02:38:45;;;;;;;1.33;1.27;;;12.80;62.00;12.10;96652.00;;;;5013366;28;20241;-55
2023/05/26 02:41:12;;;;;;;1.17;1.17;;;12.80;62.80;12.10;96644.00;;;;5013455;28;20661;-55
2023/05/26 02:43:40;;;;;;;1.33;1.00;;;12.80;61.90;12.10;96646.00;;;;5013409;28;20201;-54
2023/05/26 02:46:07;;;;;;;2.30;1.37;;;12.80;62.00;12.10;96651.00;;;;5013264;28;20626;-55
2023/05/26 02:48:34;;;;;;;1.73;1.63;;;12.90;61.70;12.20;96646.00;;;;5013304;28;20293;-55
2023/05/26 02:51:02;;;;;;;1.00;1.00;;;12.90;61.60;12.30;96647.00;;;;5013237;28;20277;-55
2023/05/26 02:53:30;;;;;;;1.27;1.27;;;;;12.30;96644.00;;;;5013499;28;20268;-55
2023/05/26 02:55:57;;;;;;;2.00;1.77;;;13.00;60.40;12.30;96650.00;;;;5013165;28;20216;-55
2023/05/26 02:58:25;;;;;;;2.30;1.13;;;;;12.40;96647.00;;;;5017316;28;20225;-55
2023/05/26 03:00:52;;;;;;;1.13;1.13;;;;;12.40;96649.00;;;;5017109;28;20674;-55
2023/05/26 03:03:19;;;;;;;2.07;1.90;;;13.00;59.80;12.40;96640.00;;;;5017323;28;20676;-55
2023/05/26 03:05:46;;;;;;;0.80;0.80;;;13.00;60.10;12.30;96643.00;;;;5016953;28;20637;-55
2023/05/26 03:08:14;;;;;;;0.90;0.90;;;13.10;60.00;12.30;96635.00;;;;5017241;28;20197;-56
2023/05/26 03:10:43;;;;;;;3.80;1.20;;;13.10;60.10;12.20;96642.00;;;;5017417;28;20185;-55
2023/05/26 03:13:10;;;;;;;1.17;1.17;;;13.00;60.20;12.30;96641.00;;;;5016885;28;20236;-56
2023/05/26 03:15:39;;;;;;;1.07;1.07;;;12.90;60.80;12.30;96634.00;;;;5016768;28;20205;-56
2023/05/26 03:18:06;;;;;;;0.90;0.90;;;13.00;61.10;12.30;96643.00;;;;5016903;28;20193;-56
2023/05/26 03:20:33;;;;;;;1.50;1.20;;;13.00;62.30;12.30;96634.00;;;;5017008;28;20269;-56
2023/05/26 03:23:00;;;;;;;1.03;1.03;;;13.00;61.10;12.30;96649.00;;;;5016706;28;20553;-56
2023/05/26 03:25:29;;;;;;;1.47;1.47;;;13.00;61.00;12.30;96633.00;;;;5016770;28;20214;-56
2023/05/26 03:27:56;;;;;;;1.47;1.37;;;13.00;60.90;12.40;96629.00;;;;5016619;28;20190;-56
2023/05/26 03:30:23;;;;;;;1.03;1.03;;;13.00;59.70;12.30;96632.00;;;;5016583;28;20196;-56
2023/05/26 03:32:50;;;;;;;1.53;1.43;;;13.00;60.40;12.20;96640.00;;;;5016446;28;20193;-56
2023/05/26 03:35:17;;;;;;;3.40;1.70;;;12.90;60.00;12.10;96632.00;;;;5016380;28;20214;-56
2023/05/26 03:37:44;;;;;;;1.37;1.27;;;12.90;60.90;12.10;96637.00;;;;5016403;28;20193;-56
2023/05/26 03:40:11;;;;;;;0.90;0.90;;;12.80;61.20;12.00;96643.00;;;;5016610;28;20219;-56
2023/05/26 03:42:40;;;;;;;0.97;0.97;;;12.80;61.70;12.10;96635.00;;;;5016359;28;20205;-57
2023/05/26 03:45:08;;;;;;;0.70;0.70;;;12.80;61.50;12.10;96635.00;;;;5016160;28;20216;-56
2023/05/26 03:47:35;;;;;;;1.73;1.63;;;12.80;61.10;12.30;96636.00;;;;5016251;28;20198;-56
2023/05/26 03:50:03;;;;;;;0.93;0.93;;;12.90;61.00;12.30;96642.00;;;;5016238;28;20189;-56
2023/05/26 03:52:30;;;;;;;1.57;1.47;;;12.90;60.80;12.20;96643.00;;;;5016207;28;20185;-56
2023/05/26 03:54:57;;;;;;;1.90;1.80;;;12.90;60.30;12.20;96648.00;;;;5014861;28;20217;-56
2023/05/26 03:57:24;;;;;;;0.90;0.90;;;12.90;60.50;12.30;96644.00;;;;5016111;28;20193;-56
2023/05/26 03:59:52;;;;;;;1.13;1.10;;;12.90;63.10;12.50;96648.00;;;;5016003;28;20209;-56
2023/05/26 04:02:20;;;;;;;1.90;1.47;;;;;12.40;96639.00;;;;5015918;28;20189;-56
2023/05/26 04:04:47;;;;;;;1.00;1.00;;;;;12.40;96644.00;;;;5016109;28;20318;-56
2023/05/26 04:07:15;;;;;;;2.30;2.10;;;13.10;59.30;12.50;96640.00;;;;5016106;28;20592;-57
2023/05/26 04:09:43;;;;;;;1.53;1.43;;;13.10;60.00;12.30;96645.00;;;;5014965;28;20221;-55
2023/05/26 04:12:10;;;;;;;1.67;1.57;;;13.00;59.30;12.20;96639.00;;;;5016053;28;20193;-55
2023/05/26 04:14:37;;;;;;;1.03;1.03;;;13.00;59.90;12.30;96633.00;;;;5016232;28;20214;-55
2023/05/26 04:17:06;;;;;;;0.93;0.93;;;12.90;60.50;12.20;96641.00;;;;5016384;28;20201;-55
2023/05/26 04:19:33;;;;;;;1.00;0.97;;;12.90;61.00;12.20;96637.00;;;;5014529;28;20696;-55
2023/05/26 04:22:00;;;;;;;1.83;1.63;;;12.90;61.00;12.20;96633.00;;;;5016308;28;20189;-55
2023/05/26 04:24:27;;;;;;;1.80;0.97;;;12.90;61.00;12.20;96635.00;;;;5015379;28;20217;-55
2023/05/26 04:26:54;;;;;;;2.07;1.97;;;12.90;61.20;12.20;96628.00;;;;5015682;28;20197;-55
2023/05/26 04:29:21;;;;;;;3.13;1.70;;;12.90;62.00;12.20;96637.00;;;;5015895;28;20208;-55
2023/05/26 04:31:48;;;;;;;1.00;1.00;;;12.90;62.30;12.30;96635.00;;;;5015410;28;20265;-55
2023/05/26 04:34:21;;;;;;;1.27;1.27;;;13.00;62.50;12.30;96636.00;;;;5015387;28;20213;-55
2023/05/26 04:36:49;;;;;;;1.63;1.53;;;13.00;64.30;12.30;96645.00;;;;5015840;28;20178;-55
2023/05/26 04:39:16;;;;;;;0.83;0.83;;;13.10;62.80;12.50;96650.00;;;;5015346;28;20218;-56
2023/05/26 04:41:44;;;;;;;1.00;1.00;;;13.10;61.30;12.50;96647.00;;;;5015100;28;20248;-55
2023/05/26 04:44:12;;;;;;;14.87;1.33;;;13.20;61.00;12.50;96646.00;;;;5015581;28;20206;-55
2023/05/26 04:46:39;;;;;;;1.43;1.33;;;13.30;60.10;12.60;96656.00;;;;5015111;28;20580;-56
2023/05/26 04:49:07;;;;;;;1.03;1.03;;;13.20;60.20;12.60;96650.00;;;;5015060;28;20660;-55
2023/05/26 04:51:36;;;;;;;1.43;1.43;;;13.20;60.30;12.70;96648.00;;;;5015497;28;20288;-55
2023/05/26 04:54:04;;;;;;;1.00;1.00;;;;;12.70;96649.00;;;;5014893;28;20281;-55
2023/05/26 04:56:31;;;;;;;1.63;1.63;;;13.30;59.30;12.70;96651.00;;;;5013928;28;20201;-55
2023/05/26 04:58:58;;;;;;;1.40;1.13;;;13.30;59.20;12.60;96655.00;;;;5015100;28;20224;-55
2023/05/26 05:01:26;;;;;;;1.47;1.37;;;13.30;59.80;12.60;96653.00;;;;5014785;28;20190;-56
2023/05/26 05:03:53;;;;;;;1.47;1.37;;;13.20;59.50;12.70;96647.00;;;;5014775;28;20193;-56
2023/05/26 05:06:20;;;;;;;2.43;1.50;;;;;12.60;96654.00;;;;5014898;28;20205;-56
2023/05/26 05:08:49;;;;;;;1.03;1.00;;;;;12.40;96654.00;;;;5015281;28;20193;-56
2023/05/26 05:11:16;;;;;;;1.40;1.37;;;13.10;59.50;12.40;96656.00;;;;5014905;28;20320;-56
2023/05/26 05:13:43;;;;;;;1.40;1.30;;;13.10;61.00;12.30;96658.00;;;;5014640;28;20276;-56
2023/05/26 05:16:11;;;;;;;1.23;1.23;;;;;12.10;96661.00;;;;5014453;28;20213;-56
2023/05/26 05:18:38;;;;;;;1.57;1.40;;;;;12.00;96649.00;;;;5014287;28;20201;-56
2023/05/26 05:21:06;;;;;;;1.47;1.37;;;;;12.00;96661.00;;;;5014241;28;20710;-56
2023/05/26 05:23:34;;;;;;;0.80;0.80;;;12.70;62.30;12.20;96654.00;;;;5014420;28;20193;-56
2023/05/26 05:26:02;;;;;;;0.60;0.60;;;12.80;63.00;12.30;96648.00;;;;5012972;28;20228;-59
2023/05/26 05:28:30;;;;;;;1.83;1.73;;;;;12.20;96658.00;;;;5014732;28;20202;-56
2023/05/26 05:30:57;;;;;;;1.13;1.13;;;12.80;62.10;12.20;96655.00;;;;5015036;28;20189;-56
2023/05/26 05:33:24;;;;;;;1.20;1.20;;;12.90;62.40;12.30;96653.00;;;;5014259;28;20193;-55
2023/05/26 05:35:51;;;;;;;1.13;1.13;;;12.90;63.00;12.30;96654.00;;;;5014385;28;20256;-56
2023/05/26 05:38:18;;;;;;;0.93;0.93;;;12.90;61.70;12.30;96654.00;;;;5014177;28;20189;-55
2023/05/26 05:40:45;;;;;;;1.57;1.47;;;12.90;62.10;12.20;96660.00;;;;5014285;28;20225;-56
2023/05/26 05:43:14;;;;;;;2.30;2.13;;;12.90;61.80;11.90;96667.00;;;;5014553;28;20193;-56
2023/05/26 05:45:41;;;;;;;1.90;1.70;;;12.60;62.80;11.80;96668.00;;;;5012653;28;20212;-56
2023/05/26 05:48:08;;;;;;;1.00;1.00;;;12.50;63.40;12.00;96666.00;;;;5014505;28;20200;-56
2023/05/26 05:50:36;;;;;;;3.63;2.13;;;12.60;63.40;12.30;96663.00;;;;5012697;28;20205;-56
2023/05/26 05:53:03;;;;;;;0.70;0.70;;;13.10;60.80;12.60;96679.00;;;;5014099;28;20225;-56
2023/05/26 05:55:30;;;;;;;0.83;0.83;;;13.30;59.90;12.80;96676.00;;;;5013911;28;20212;-56
2023/05/26 05:57:57;;;;;;;1.10;1.10;;;13.30;60.40;12.90;96682.00;;;;5009936;28;20207;-55
2023/05/26 06:00:26;;;;;;;1.20;1.20;;;13.50;59.30;13.10;96678.00;;;;5004496;28;20248;-57
2023/05/26 06:02:53;;;;;;;0.93;0.93;;;13.60;58.90;13.10;96680.00;;;;5011909;28;20316;-57
2023/05/26 06:05:20;;;;;;;1.70;1.60;;;13.70;58.30;13.10;96679.00;;;;5012044;28;20217;-57
2023/05/26 06:07:47;;;;;;;2.67;2.47;;;13.70;58.20;13.10;96671.00;;;;5011526;28;20672;-57
2023/05/26 06:10:14;;;;;;;2.43;2.13;;;13.70;58.00;13.20;96677.00;;;;5011828;28;20193;-57
2023/05/26 06:12:41;;;;;;;1.27;1.27;;;13.80;57.80;13.30;96689.00;;;;5011116;28;20205;-56
2023/05/26 06:15:10;;;;;;;1.27;1.27;;;;;13.30;96679.00;;;;5010335;28;20214;-55
2023/05/26 06:17:38;;;;;;;1.47;1.37;;;14.00;56.10;13.40;96679.00;;;;5010687;28;20204;-55
2023/05/26 06:20:07;;;;;;;1.23;1.23;;;14.00;57.00;13.50;96685.00;;;;5011652;28;20787;-55
2023/05/26 06:22:37;;;;;;;1.00;1.00;;;;;13.60;96679.00;;;;5011515;28;20728;-55
2023/05/26 06:25:05;;;;;;;27.00;1.97;;;;;13.70;96685.00;;;;5011498;28;20213;-56
2023/05/26 06:27:33;;;;;;;0.73;0.73;;;14.30;55.00;13.80;96677.00;;;;5011718;28;20244;-56
2023/05/26 06:30:00;;;;;;;1.00;1.00;;;;;13.90;96683.00;;;;5011973;28;20194;-55
2023/05/26 06:32:27;;;;;;;1.53;1.53;;;14.40;55.00;13.80;96677.00;;;;5006395;28;20665;-55
2023/05/26 06:34:56;;;;;;;0.90;0.90;;;;;13.80;96679.00;;;;5011636;28;20224;-59
2023/05/26 06:37:23;;;;;;;1.80;1.70;;;14.40;54.80;13.90;96684.00;;;;5010091;28;20208;-55
2023/05/26 06:39:50;;;;;;;1.77;1.67;;;14.50;55.10;14.20;96684.00;;;;5011624;28;20225;-55
2023/05/26 06:42:18;;;;;;;1.20;1.20;;;;;14.00;96683.00;;;;5011329;28;20193;-55
2023/05/26 06:44:45;;;;;;;3.40;2.67;;;;;14.10;96679.00;;;;5011240;28;20221;-55
2023/05/26 06:47:12;;;;;;;1.03;1.03;;;;;14.30;96680.00;;;;5011268;28;20224;-55
2023/05/26 06:49:40;;;;;;;1.40;1.30;;;;;14.50;96683.00;;;;5010980;28;20194;-55
2023/05/26 06:52:08;;;;;;;3.43;1.97;;;15.10;52.10;14.60;96684.00;;;;5010173;28;20679;-55
2023/05/26 06:54:35;;;;;;;1.30;1.20;;;15.20;60.00;15.00;96681.00;;;;5011093;28;20275;-55
2023/05/26 06:57:03;;;;;;;1.00;1.00;;;15.50;63.90;15.20;96685.00;;;;5011075;28;20196;-55
2023/05/26 06:59:30;;;;;;;2.60;1.80;;;15.90;59.20;15.40;96688.00;;;;5009067;28;20213;-55
2023/05/26 07:01:57;;;;;;;1.33;1.23;;;15.90;56.20;15.50;96683.00;;;;5011028;28;20217;-55
2023/05/26 07:04:24;;;;;;;1.10;1.10;;;;;15.70;96685.00;;;;5009678;28;20631;-56
2023/05/26 07:06:51;;;;;;;1.63;1.00;;;16.00;81.70;15.70;96691.00;;;;5009999;28;20193;-56
2023/05/26 07:09:21;;;;;;;1.00;1.00;;;16.30;62.00;15.70;96680.00;;;;5011051;28;20204;-56
2023/05/26 07:11:48;;;;;;;1.67;1.57;;;16.20;70.60;15.80;96687.00;;;;5010975;28;20189;-56
2023/05/26 07:14:15;;;;;;;2.20;2.10;;;16.40;54.60;16.10;96685.00;;;;5011068;28;20269;-57
2023/05/26 07:16:42;;;;;;;1.73;1.63;;;16.50;62.80;16.10;96688.00;;;;5011024;28;20212;-56
2023/05/26 07:19:09;;;;;;;1.00;1.00;;;16.50;52.10;16.10;96685.00;;;;5010815;28;20204;-56
2023/05/26 07:21:36;;;;;;;2.77;1.83;;;16.60;49.80;16.20;96689.00;;;;5010934;28;20197;-56
2023/05/26 07:24:03;;;;;;;1.00;1.00;;;16.60;46.20;16.20;96683.00;;;;5010686;28;20711;-56
2023/05/26 07:26:32;;;;;;;6.73;1.33;;;16.70;46.20;16.40;96678.00;;;;5010895;28;20189;-57
2023/05/26 07:28:59;;;;;;;2.13;1.77;;;16.80;46.40;16.50;96678.00;;;;5010922;28;20197;-56
2023/05/26 07:31:26;;;;;;;2.23;2.00;;;16.90;59.10;16.40;96681.00;;;;5010795;28;20212;-56
2023/05/26 07:33:53;;;;;;;1.93;1.83;;;17.00;59.30;16.60;96687.00;;;;5010745;28;20770;-56
2023/05/26 07:36:20;;;;;;;2.83;2.50;;;17.00;63.20;16.60;96686.00;;;;5010799;28;20197;-56
2023/05/26 07:38:47;;;;;;;1.57;1.47;;;17.10;45.20;16.70;96683.00;;;;5011021;28;20198;-55
2023/05/26 07:41:14;;;;;;;1.00;1.00;;;17.20;64.00;16.70;96682.00;;;;5010580;28;20218;-56
2023/05/26 07:43:43;;;;;;;1.37;1.30;;;17.20;46.10;16.70;96684.00;;;;5011616;28;20190;-55
2023/05/26 07:46:10;;;;;;;1.10;1.10;;;17.30;45.50;16.80;96686.00;;;;5014167;28;20214;-56
2023/05/26 07:48:37;;;;;;;1.53;1.47;;;17.30;44.70;16.80;96685.00;;;;5014286;28;20193;-56
2023/05/26 07:51:04;;;;;;;1.97;1.60;;;17.30;44.20;16.90;96691.00;;;;5014219;28;20204;-56
2023/05/26 07:53:31;;;;;;;0.77;0.77;;;17.50;46.20;17.10;96687.00;;;;5014247;28;20189;-57
2023/05/26 07:55:58;;;;;;;5.40;2.27;;;17.60;52.60;17.10;96682.00;;;;5014355;28;20305;-56
2023/05/26 07:58:26;;;;;;;1.90;1.80;;;17.60;46.40;17.20;96691.00;;;;5013890;28;20212;-59
2023/05/26 08:00:54;;;;;;;1.77;1.67;;;17.80;46.00;17.30;96693.00;;;;5014232;28;20688;-56
2023/05/26 08:03:21;;;;;;;3.13;2.87;;;17.90;43.70;17.40;96691.00;;;;5013901;28;20268;-56
2023/05/26 08:05:49;;;;;;;2.03;1.93;;;17.90;44.40;17.50;96687.00;;;;5011758;28;20213;-56
2023/05/26 08:08:16;;;;;;;0.90;0.90;;;17.90;43.90;17.50;96684.00;;;;5012127;28;20212;-56
2023/05/26 08:10:43;;;;;;;5.07;2.00;;;18.00;42.70;17.60;96692.00;;;;5014120;28;20272;-55
2023/05/26 08:13:10;;;;;;;7.97;2.30;;;;;17.60;96693.00;;;;5013545;28;20272;-56
2023/05/26 08:15:38;;;;;;;1.50;1.40;;;18.30;41.90;17.80;96700.00;;;;5014083;28;20253;-56
2023/05/26 08:18:06;;;;;;;2.87;2.37;;;18.30;43.10;17.80;96689.00;;;;5013232;28;20227;-56
2023/05/26 08:20:33;;;;;;;1.33;1.33;;;18.30;43.00;17.90;96690.00;;;;5014021;28;20227;-56
2023/05/26 08:23:01;;;;;;;1.73;1.63;;;18.30;42.20;18.00;96688.00;;;;5013569;28;20636;-56
2023/05/26 08:25:28;;;;;;;2.47;2.27;;;18.50;41.90;18.10;96691.00;;;;5012314;28;20217;-56
2023/05/26 08:27:56;;;;;;;1.97;1.87;;;18.50;41.70;18.00;96695.00;;;;5013363;28;20700;-56
2023/05/26 08:30:23;;;;;;;1.13;1.13;;;18.50;41.80;18.10;96696.00;;;;5012207;28;20676;-56
2023/05/26 08:32:50;;;;;;;1.13;1.13;;;18.50;41.80;18.20;96695.00;;;;5013121;28;20197;-56
2023/05/26 08:35:18;;;;;;;5.13;1.90;;;18.70;41.10;18.30;96699.00;;;;5013591;28;20217;-56
2023/05/26 08:37:45;;;;;;;2.37;1.57;;;18.80;41.60;18.50;96702.00;;;;5013434;28;20204;-56
2023/05/26 08:40:14;;;;;;;1.40;1.30;;;;;18.40;96701.00;;;;5013212;28;20213;-56
2023/05/26 08:42:47;;;;;;;1.97;1.87;;;18.90;42.80;18.60;96699.00;;;;5013347;28;20197;-56
2023/05/26 08:45:14;;;;;;;2.37;2.17;;;19.00;46.80;18.70;96693.00;;;;5012028;28;20217;-56
2023/05/26 08:47:43;;;;;;;1.30;0.93;;;;;18.80;96696.00;;;;5011991;28;20664;-56
2023/05/26 08:50:12;;;;;;;1.20;1.20;;;19.20;38.20;18.70;96698.00;;;;5013026;28;20243;-56
2023/05/26 08:52:46;;;;;;;1.27;1.27;;;19.20;39.10;18.80;96696.00;;;;5012945;28;20244;-56
2023/05/26 08:55:14;;;;;;;1.47;1.37;;;19.20;38.90;18.90;96694.00;;;;5012561;28;20224;-56
2023/05/26 08:57:43;;;;;;;0.90;0.90;;;19.30;38.30;18.90;96696.00;;;;5012302;28;20202;-55
2023/05/26 09:00:13;;;;;;;1.43;1.17;;;19.40;37.70;18.90;96699.00;;;;5012055;28;20746;-56
2023/05/26 09:02:40;;;;;;;2.33;2.13;;;19.40;37.40;18.90;96702.00;;;;5011676;28;20672;-56
2023/05/26 09:05:08;;;;;;;0.97;0.97;;;19.40;37.50;18.90;96701.00;;;;5013028;28;20356;-56
2023/05/26 09:07:36;;;;;;;0.93;0.93;;;19.40;37.70;19.10;96700.00;;;;5012180;28;20281;-56
2023/05/26 09:10:22;;;;;;;1.63;1.53;;;19.50;38.50;19.20;96689.00;;;;5012868;28;20251;-56
2023/05/26 09:12:50;;;;;;;1.00;1.00;;;19.60;36.80;19.20;96703.00;;;;5012524;28;20545;-56
2023/05/26 09:15:21;;;;;;;1.67;1.53;;;19.60;37.20;19.20;96701.00;;;;5012898;28;20247;-56
2023/05/26 09:17:49;;;;;;;2.13;1.93;;;19.70;36.70;19.20;96705.00;;;;5011375;28;20189;-56
2023/05/26 09:20:17;;;;;;;1.03;1.03;;;19.70;37.00;19.40;96702.00;;;;5013026;28;20227;-56
2023/05/26 09:22:51;;;;;;;1.30;1.30;;;19.80;37.00;19.40;96704.00;;;;5012482;28;20251;-56
2023/05/26 09:25:20;;;;;;;1.40;1.30;;;19.80;36.00;19.60;96702.00;;;;5011059;28;20310;-56
2023/05/26 09:27:49;;;;;;;2.10;1.53;;;;;19.60;96707.00;;;;5012459;28;20204;-56
2023/05/26 09:30:16;;;;;;;1.63;1.53;;;20.00;36.80;19.80;96701.00;;;;5012659;28;20202;-56
2023/05/26 09:32:46;;;;;;;1.43;1.33;;;20.20;39.70;19.80;96696.00;;;;5012380;28;20547;-56
2023/05/26 09:35:13;;;;;;;1.67;1.57;;;20.20;34.90;20.00;96706.00;;;;5012821;28;20240;-56
2023/05/26 09:37:44;;;;;;;1.43;1.33;;;20.40;35.50;19.90;96707.00;;;;5012184;28;20672;-56
2023/05/26 09:40:14;;;;;;;1.57;1.47;;;20.30;34.00;20.00;96699.00;;;;5012149;28;20684;-56
2023/05/26 09:42:53;;;;;;;1.23;1.17;;;20.40;45.80;20.00;96711.00;;;;5007693;28;20201;-56
2023/05/26 09:45:20;;;;;;;0.90;0.90;;;20.40;36.10;20.20;96706.00;;;;5011345;28;20217;-56
2023/05/26 09:47:53;;;;;;;0.98;0.98;;;20.60;40.60;20.30;96704.00;;;;5011487;28;20201;-56
2023/05/26 09:50:21;;;;;;;1.70;1.60;;;;;20.50;96706.00;;;;5012354;28;20200;-56
2023/05/26 09:52:50;;;;;;;2.43;2.13;;;20.80;34.30;20.50;96707.00;;;;5010396;28;20219;-56
2023/05/26 09:55:18;;;;;;;2.37;2.17;;;20.90;34.90;20.40;96709.00;;;;5012079;28;20680;-55
2023/05/26 09:57:47;;;;;;;4.57;1.57;;;20.90;34.50;20.50;96709.00;;;;5010255;28;20197;-56
2023/05/26 10:00:18;;;;;;;0.90;0.90;;;20.90;35.80;20.70;96710.00;;;;5010763;28;20220;-56
2023/05/26 10:02:48;;;;;;;2.10;1.95;;;21.00;34.80;20.60;96710.00;;;;5011387;28;20193;-56
2023/05/26 10:05:17;;;;;;;2.85;1.52;;;21.10;34.70;20.60;96710.00;;;;5012030;28;20233;-56
2023/05/26 10:07:46;;;;;;;1.50;1.40;;;21.10;34.60;20.60;96696.00;;;;5010148;28;20205;-56
2023/05/26 10:10:15;;;;;;;7.10;3.10;;;21.00;34.00;20.50;96698.00;;;;5011751;28;20197;-55
2023/05/26 10:12:43;;;;;;;2.03;1.93;;;21.00;34.60;20.60;96710.00;;;;5011420;28;20193;-56
2023/05/26 10:15:12;;;;;;;1.87;1.77;;;21.10;35.20;20.90;96704.00;;;;5011971;28;20220;-55
2023/05/26 10:17:39;;;;;;;6.20;2.40;;;21.30;34.40;20.90;96700.00;;;;5011027;28;20197;-56
2023/05/26 10:20:09;;;;;;;3.50;2.50;;;21.30;32.30;21.00;96706.00;;;;5011439;28;20197;-56
2023/05/26 10:22:47;;;;;;;4.60;2.27;;;21.40;30.70;21.00;96703.00;;;;5011538;28;20286;-56
2023/05/26 10:25:24;;;;;;;1.33;1.33;;;21.40;31.10;21.00;96704.00;;;;5010442;28;20224;-57
2023/05/26 10:28:03;;;;;;;1.73;1.60;;;21.40;31.20;20.90;96711.00;;;;5009720;28;20189;-56
2023/05/26 10:30:33;;;;;;;3.30;2.10;;;21.30;31.20;21.00;96702.00;;;;5011626;28;20197;-56
2023/05/26 10:33:11;;;;;;;2.40;1.83;;;21.40;31.60;21.30;96703.00;;;;5011605;28;20679;-56
2023/05/26 10:35:39;;;;;;;1.88;1.77;;;21.60;32.20;21.20;96713.00;;;;5011813;28;20220;-56
2023/05/26 10:38:13;;;;;;;1.63;1.52;;;21.60;31.00;21.30;96711.00;;;;5011742;28;20542;-56
2023/05/26 10:40:43;;;;;;;2.55;2.08;;;;;21.30;96713.00;;;;5010338;28;20220;-57
2023/05/26 10:43:20;;;;;;;1.20;1.20;;;21.80;32.50;21.60;96707.00;;;;5011368;28;20197;-57
2023/05/26 10:45:53;;;;;;;2.53;1.65;;;;;21.70;96711.00;;;;5011241;28;20217;-57
2023/05/26 10:48:20;;;;;;;1.45;1.35;;;22.00;32.40;21.70;96715.00;;;;5011286;28;20592;-55
2023/05/26 10:51:17;;;;;;;0.95;0.95;;;;;21.90;96709.00;;;;5011180;28;20205;-57
2023/05/26 10:53:46;;;;;;;2.00;1.52;;;;;21.80;96707.00;;;;5011022;28;20244;-56
2023/05/26 10:56:17;;;;;;;1.65;1.35;;;22.20;30.70;21.90;96704.00;;;;5009776;28;20226;-56
2023/05/26 10:58:49;;;;;;;5.68;2.63;;;22.30;32.80;21.90;96708.00;;;;5010009;28;20718;-56
2023/05/26 11:01:27;;;;;;;1.40;1.35;;;22.30;32.70;21.90;96705.00;;;;5006857;28;20303;-56
2023/05/26 11:03:58;;;;;;;1.10;1.10;;;;;22.20;96709.00;;;;5008156;28;20587;-56
2023/05/26 11:06:41;;;;;;;2.03;1.60;;;22.50;31.60;22.20;96701.00;;;;5011102;28;20204;-56
2023/05/26 11:09:09;;;;;;;1.13;1.13;;;;;22.20;96703.00;;;;5011170;28;20197;-56
2023/05/26 11:11:38;;;;;;;1.75;1.65;;;;;22.20;96703.00;;;;5011121;28;20201;-56
2023/05/26 11:14:09;;;;;;;1.35;1.27;;;22.70;30.60;22.20;96699.00;;;;5010983;28;20232;-56
2023/05/26 11:16:39;;;;;;;1.45;1.35;;;;;22.50;96691.00;;;;5011233;28;20193;-56
2023/05/26 11:19:09;;;;;;;1.33;1.33;;;22.70;32.30;22.40;96697.00;;;;5014405;28;20664;-56